createdAt,value
2023-05-10T00:01:23.067Z,1.15
2023-05-10T00:03:56.222Z,1.38
2023-05-10T00:06:29.096Z,1.30
2023-05-10T00:09:04.538Z,0.80
2023-05-10T00:11:37.027Z,0.55
2023-05-10T00:14:10.194Z,1.42
2023-05-10T00:16:42.656Z,1.05
2023-05-10T00:19:16.143Z,0.83
2023-05-10T00:21:49.052Z,0.40
2023-05-10T00:24:23.229Z,1.17
2023-05-10T00:26:55.736Z,0.65
2023-05-10T00:29:29.835Z,0.63
2023-05-10T00:32:02.440Z,0.43
2023-05-10T00:34:35.638Z,0.40
2023-05-10T00:37:08.153Z,0.52
2023-05-10T00:39:42.208Z,0.82
2023-05-10T00:42:15.029Z,0.63
2023-05-10T00:44:48.500Z,1.07
2023-05-10T00:47:23.114Z,1.15
2023-05-10T00:49:56.908Z,1.20
2023-05-10T00:52:30.727Z,1.67
2023-05-10T00:55:08.329Z,1.30
2023-05-10T00:57:41.153Z,2.50
2023-05-10T01:00:19.275Z,0.77
2023-05-10T01:02:53.765Z,0.82
2023-05-10T01:05:29.116Z,1.58
2023-05-10T01:08:04.181Z,1.20
2023-05-10T01:10:38.756Z,1.13
2023-05-10T01:13:12.924Z,0.60
2023-05-10T01:15:47.621Z,0.60
2023-05-10T01:18:22.999Z,0.43
2023-05-10T01:21:06.707Z,1.55
2023-05-10T01:24:07.482Z,0.97
2023-05-10T01:27:04.915Z,1.38
2023-05-10T01:30:21.821Z,0.70
2023-05-10T01:33:02.782Z,0.50
2023-05-10T01:35:42.729Z,0.70
2023-05-10T01:38:21.343Z,1.33
2023-05-10T01:41:01.618Z,0.95
2023-05-10T01:43:44.453Z,0.45
2023-05-10T01:46:21.773Z,0.65
2023-05-10T01:48:59.552Z,1.10
2023-05-10T01:51:40.659Z,1.00
2023-05-10T01:54:15.622Z,0.80
2023-05-10T01:56:54.128Z,1.00
2023-05-10T01:59:30.718Z,0.80
2023-05-10T02:02:05.683Z,0.63
2023-05-10T02:04:41.391Z,0.83
2023-05-10T02:07:15.307Z,0.90
2023-05-10T02:09:49.525Z,0.88
2023-05-10T02:12:24.155Z,0.85
2023-05-10T02:14:58.547Z,0.57
2023-05-10T02:17:33.341Z,0.83
2023-05-10T02:20:11.596Z,0.10
2023-05-10T02:22:49.845Z,0.20
2023-05-10T02:25:24.966Z,0.30
2023-05-10T02:27:59.333Z,0.20
2023-05-10T02:30:33.875Z,0.90
2023-05-10T02:33:07.201Z,0.73
2023-05-10T02:35:42.300Z,0.10
2023-05-10T02:38:17.266Z,0.60
2023-05-10T02:40:50.861Z,0.30
2023-05-10T02:43:24.986Z,1.37
2023-05-10T02:45:57.873Z,0.40
2023-05-10T02:48:30.778Z,0.30
2023-05-10T02:51:08.284Z,0.63
2023-05-10T02:53:45.613Z,0.55
2023-05-10T02:56:27.302Z,0.90
2023-05-10T02:59:00.227Z,0.47
2023-05-10T03:01:33.834Z,0.90
2023-05-10T03:04:07.921Z,0.60
2023-05-10T03:06:43.200Z,0.30
2023-05-10T03:09:16.760Z,0.97
2023-05-10T03:12:03.179Z,0.75
2023-05-10T03:14:51.578Z,0.82
2023-05-10T03:17:38.147Z,1.02
2023-05-10T03:20:14.584Z,1.02
2023-05-10T03:22:53.758Z,1.40
2023-05-10T03:25:28.312Z,1.20
2023-05-10T03:28:02.389Z,0.60
2023-05-10T03:30:37.191Z,1.05
2023-05-10T03:33:09.945Z,0.45
2023-05-10T03:35:47.251Z,0.60
2023-05-10T03:38:22.296Z,0.40
2023-05-10T03:40:55.480Z,0.30
2023-05-10T03:43:28.599Z,0.98
2023-05-10T03:46:03.328Z,0.73
2023-05-10T03:48:36.229Z,0.50
2023-05-10T03:51:09.601Z,1.30
2023-05-10T03:53:43.491Z,1.13
2023-05-10T03:56:16.384Z,0.82
2023-05-10T03:58:49.584Z,0.68
2023-05-10T04:01:22.632Z,0.70
2023-05-10T04:03:55.522Z,1.63
2023-05-10T04:06:28.206Z,2.55
2023-05-10T04:09:05.865Z,2.58
2023-05-10T04:11:38.370Z,2.60
2023-05-10T04:14:11.283Z,2.00
2023-05-10T04:16:43.899Z,2.05
2023-05-10T04:19:17.428Z,3.28
2023-05-10T04:21:50.303Z,2.25
2023-05-10T04:24:25.091Z,2.72
2023-05-10T04:26:57.975Z,1.90
2023-05-10T04:29:30.911Z,1.50
2023-05-10T04:32:04.665Z,3.95
2023-05-10T04:34:37.834Z,4.95
2023-05-10T04:37:10.346Z,3.28
2023-05-10T04:39:45.093Z,3.50
2023-05-10T04:42:17.606Z,4.45
2023-05-10T04:44:50.738Z,5.20
2023-05-10T04:47:23.263Z,5.28
2023-05-10T04:49:56.124Z,4.28
2023-05-10T04:52:28.855Z,3.07
2023-05-10T04:55:03.228Z,3.33
2023-05-10T04:57:36.528Z,3.28
2023-05-10T05:00:10.601Z,3.97
2023-05-10T05:02:45.090Z,5.55
2023-05-10T05:05:17.953Z,4.13
2023-05-10T05:07:50.592Z,4.30
2023-05-10T05:10:24.698Z,4.53
2023-05-10T05:12:59.071Z,3.00
2023-05-10T05:15:31.759Z,4.43
2023-05-10T05:18:04.609Z,2.93
2023-05-10T05:20:37.438Z,2.10
2023-05-10T05:23:10.526Z,3.47
2023-05-10T05:25:44.481Z,3.72
2023-05-10T05:28:17.499Z,3.80
2023-05-10T05:30:50.215Z,4.13
2023-05-10T05:33:23.789Z,5.15
2023-05-10T05:35:56.335Z,3.55
2023-05-10T05:38:29.273Z,3.00
2023-05-10T05:41:04.193Z,3.28
2023-05-10T05:43:38.436Z,1.90
2023-05-10T05:46:11.460Z,2.03
2023-05-10T05:48:44.512Z,2.50
2023-05-10T05:51:17.283Z,2.63
2023-05-10T05:53:50.401Z,2.45
2023-05-10T05:56:25.731Z,2.77
2023-05-10T05:58:59.006Z,3.20
2023-05-10T06:01:31.488Z,1.75
2023-05-10T06:04:05.108Z,2.67
2023-05-10T06:06:37.766Z,2.33
2023-05-10T06:09:10.664Z,1.50
2023-05-10T06:11:45.222Z,3.05
2023-05-10T06:14:18.335Z,2.58
2023-05-10T06:16:51.148Z,1.77
2023-05-10T06:19:24.130Z,1.60
2023-05-10T06:21:57.548Z,1.67
2023-05-10T06:24:30.088Z,1.83
2023-05-10T06:27:05.591Z,1.85
2023-05-10T06:29:38.134Z,0.60
2023-05-10T06:32:10.853Z,0.90
2023-05-10T06:34:44.820Z,0.93
2023-05-10T06:37:17.709Z,1.13
2023-05-10T06:39:50.717Z,0.50
2023-05-10T06:42:26.922Z,0.45
2023-05-10T06:44:59.593Z,0.40
2023-05-10T06:47:32.820Z,0.60
2023-05-10T06:50:06.859Z,0.28
2023-05-10T06:52:40.044Z,0.50
2023-05-10T06:55:13.992Z,0.63
2023-05-10T06:57:48.534Z,0.10
2023-05-10T07:00:21.669Z,0.20
2023-05-10T07:02:55.270Z,0.32
2023-05-10T07:05:29.488Z,0.30
2023-05-10T07:08:02.058Z,0.43
2023-05-10T07:10:35.221Z,0.30
2023-05-10T07:13:09.688Z,0.30
2023-05-10T07:15:42.687Z,0.50
2023-05-10T07:18:15.395Z,0.20
2023-05-10T07:20:48.852Z,0.40
2023-05-10T07:23:21.728Z,0.50
2023-05-10T07:25:55.244Z,0.10
2023-05-10T07:28:29.337Z,0.20
2023-05-10T07:31:02.551Z,0.47
2023-05-10T07:33:35.166Z,0.45
2023-05-10T07:36:08.565Z,0.50
2023-05-10T07:38:41.587Z,0.50
2023-05-10T07:41:14.546Z,0.25
2023-05-10T07:43:48.982Z,0.40
2023-05-10T07:46:22.290Z,0.40
2023-05-10T07:48:54.991Z,0.50
2023-05-10T07:51:29.155Z,0.80
2023-05-10T07:54:03.977Z,0.60
2023-05-10T07:56:36.494Z,0.57
2023-05-10T07:59:12.584Z,0.30
2023-05-10T08:01:46.094Z,0.40
2023-05-10T08:04:18.996Z,0.40
2023-05-10T08:06:51.855Z,0.30
2023-05-10T08:09:25.901Z,0.40
2023-05-10T08:11:59.923Z,0.38
2023-05-10T08:14:34.561Z,0.60
2023-05-10T08:17:07.247Z,0.30
2023-05-10T08:19:40.482Z,0.63
2023-05-10T08:22:13.434Z,1.02
2023-05-10T08:24:46.380Z,0.40
2023-05-10T08:27:19.486Z,0.60
2023-05-10T08:29:53.430Z,0.20
2023-05-10T08:32:26.614Z,0.50
2023-05-10T08:34:59.219Z,0.20
2023-05-10T08:37:33.410Z,0.30
2023-05-10T08:40:07.608Z,0.40
2023-05-10T08:42:44.810Z,0.50
2023-05-10T08:45:21.129Z,0.57
2023-05-10T08:47:54.884Z,0.30
2023-05-10T08:50:28.087Z,0.40
2023-05-10T08:53:05.115Z,0.30
2023-05-10T08:55:39.896Z,0.40
2023-05-10T08:58:12.561Z,0.57
2023-05-10T09:00:48.515Z,0.40
2023-05-10T09:03:21.807Z,0.30
2023-05-10T09:05:56.920Z,0.68
2023-05-10T09:08:32.184Z,0.30
2023-05-10T09:11:05.113Z,0.60
2023-05-10T09:13:38.420Z,0.30
2023-05-10T09:16:21.078Z,0.82
2023-05-10T09:18:55.289Z,0.40
2023-05-10T09:21:28.312Z,0.40
2023-05-10T09:24:04.866Z,0.55
2023-05-10T09:26:48.579Z,0.55
2023-05-10T09:29:22.229Z,0.65
2023-05-10T09:31:56.427Z,0.30
2023-05-10T09:34:32.367Z,0.93
2023-05-10T09:37:05.652Z,0.30
2023-05-10T09:39:39.161Z,0.52
2023-05-10T09:42:11.723Z,0.40
2023-05-10T09:44:44.901Z,0.57
2023-05-10T09:47:23.109Z,0.50
2023-05-10T09:50:04.354Z,0.30
2023-05-10T09:52:48.891Z,0.38
2023-05-10T09:55:23.270Z,0.52
2023-05-10T09:58:01.659Z,0.70
2023-05-10T10:00:36.952Z,0.73
2023-05-10T10:03:16.641Z,0.68
2023-05-10T10:05:50.434Z,0.32
2023-05-10T10:08:23.564Z,0.32
2023-05-10T10:10:56.820Z,0.50
2023-05-10T10:13:29.578Z,0.47
2023-05-10T10:16:03.508Z,0.25
2023-05-10T10:18:40.853Z,0.47
2023-05-10T10:21:15.334Z,0.30
2023-05-10T10:23:47.936Z,0.43
2023-05-10T10:26:22.235Z,0.40
2023-05-10T10:29:08.740Z,0.85
2023-05-10T10:31:47.997Z,0.30
2023-05-10T10:34:31.027Z,0.70
2023-05-10T10:37:06.199Z,0.50
2023-05-10T10:39:38.799Z,0.63
2023-05-10T10:42:11.748Z,0.50
2023-05-10T10:44:46.228Z,0.60
2023-05-10T10:47:31.084Z,0.30
2023-05-10T10:50:07.174Z,0.60
2023-05-10T10:52:40.939Z,0.43
2023-05-10T10:55:15.821Z,0.40
2023-05-10T10:57:50.064Z,0.55
2023-05-10T11:00:25.920Z,0.35
2023-05-10T11:03:00.580Z,0.40
2023-05-10T11:05:40.898Z,0.63
2023-05-10T11:08:17.391Z,0.60
2023-05-10T11:10:53.567Z,0.30
2023-05-10T11:13:31.153Z,0.70
2023-05-10T11:16:16.194Z,0.50
2023-05-10T11:18:59.157Z,0.43
2023-05-10T11:21:35.429Z,0.38
2023-05-10T11:24:15.088Z,0.40
2023-05-10T11:26:51.220Z,0.28
2023-05-10T11:29:24.038Z,0.40
2023-05-10T11:31:59.416Z,0.40
2023-05-10T11:34:36.113Z,0.30
2023-05-10T11:37:10.528Z,0.40
2023-05-10T11:39:48.421Z,0.45
2023-05-10T11:42:21.782Z,0.30
2023-05-10T11:44:54.424Z,0.70
2023-05-10T11:47:27.804Z,0.45
2023-05-10T11:50:01.131Z,0.45
2023-05-10T11:52:39.243Z,1.27
2023-05-10T11:55:11.815Z,0.43
2023-05-10T11:57:47.359Z,0.57
2023-05-10T12:00:20.545Z,0.47
2023-05-10T12:02:53.693Z,0.35
2023-05-10T12:05:27.167Z,0.55
2023-05-10T12:08:14.153Z,0.40
2023-05-10T12:10:47.042Z,0.30
2023-05-10T12:13:21.906Z,0.45
2023-05-10T12:15:55.303Z,0.38
2023-05-10T12:18:27.857Z,0.60
2023-05-10T12:21:05.143Z,1.48
2023-05-10T12:23:39.465Z,0.57
2023-05-10T12:26:12.709Z,0.25
2023-05-10T12:28:45.591Z,0.40
2023-05-10T12:31:18.893Z,0.40
2023-05-10T12:33:51.542Z,0.50
2023-05-10T12:36:25.897Z,0.13
2023-05-10T12:39:05.430Z,0.45
2023-05-10T12:41:40.384Z,0.40
2023-05-10T12:44:14.137Z,0.57
2023-05-10T12:46:46.953Z,0.50
2023-05-10T12:49:20.793Z,0.37
2023-05-10T12:51:53.630Z,0.60
2023-05-10T12:54:29.014Z,0.30
2023-05-10T12:57:01.706Z,0.30
2023-05-10T12:59:36.060Z,0.30
2023-05-10T13:02:11.624Z,0.30
2023-05-10T13:04:44.186Z,0.30
2023-05-10T13:07:17.075Z,0.20
2023-05-10T13:09:51.595Z,0.20
2023-05-10T13:12:24.549Z,0.20
2023-05-10T13:14:57.396Z,0.30
2023-05-10T13:17:32.234Z,0.32
2023-05-10T13:20:08.091Z,0.25
2023-05-10T13:22:41.283Z,0.40
2023-05-10T13:25:15.225Z,0.35
2023-05-10T13:27:48.497Z,0.47
2023-05-10T13:30:25.360Z,0.30
2023-05-10T13:32:58.234Z,0.30
2023-05-10T13:35:31.251Z,0.40
2023-05-10T13:38:04.393Z,0.40
2023-05-10T13:40:41.102Z,0.40
2023-05-10T13:43:17.353Z,0.80
2023-05-10T13:45:59.837Z,0.75
2023-05-10T13:48:34.015Z,0.80
2023-05-10T13:51:06.888Z,0.40
2023-05-10T13:53:40.333Z,0.43
2023-05-10T13:56:14.514Z,1.13
2023-05-10T13:58:47.918Z,0.80
2023-05-10T14:01:20.673Z,0.30
2023-05-10T14:03:53.461Z,0.45
2023-05-10T14:06:26.303Z,0.63
2023-05-10T14:08:59.460Z,0.35
2023-05-10T14:11:33.367Z,0.40
2023-05-10T14:14:06.141Z,0.60
2023-05-10T14:16:38.909Z,0.47
2023-05-10T14:19:12.643Z,0.60
2023-05-10T14:21:45.494Z,0.40
2023-05-10T14:24:21.940Z,0.40
2023-05-10T14:26:56.201Z,0.50
2023-05-10T14:29:29.143Z,0.73
2023-05-10T14:32:02.321Z,0.40
2023-05-10T14:34:37.157Z,0.30
2023-05-10T14:37:12.606Z,0.55
2023-05-10T14:39:45.576Z,0.77
2023-05-10T14:42:22.818Z,0.32
2023-05-10T14:44:55.246Z,0.30
2023-05-10T14:47:28.752Z,0.40
2023-05-10T14:50:01.386Z,0.30
2023-05-10T14:52:39.824Z,0.43
2023-05-10T14:55:12.508Z,0.40
2023-05-10T14:57:48.492Z,2.70
2023-05-10T15:00:22.490Z,0.55
2023-05-10T15:02:55.485Z,0.40
2023-05-10T15:05:30.727Z,0.55
2023-05-10T15:08:04.187Z,0.88
2023-05-10T15:10:39.736Z,0.37
2023-05-10T15:13:16.690Z,0.22
2023-05-10T15:15:49.905Z,0.47
2023-05-10T15:18:25.192Z,0.47
2023-05-10T15:20:59.998Z,0.45
2023-05-10T15:23:33.185Z,0.30
2023-05-10T15:26:06.300Z,0.88
2023-05-10T15:28:42.554Z,0.35
2023-05-10T15:31:18.715Z,0.38
2023-05-10T15:33:58.455Z,3.20
2023-05-10T15:36:46.904Z,1.97
2023-05-10T15:39:19.430Z,1.73
2023-05-10T15:41:52.960Z,0.60
2023-05-10T15:44:26.877Z,0.85
2023-05-10T15:47:04.008Z,0.43
2023-05-10T15:49:39.873Z,0.30
2023-05-10T15:52:12.592Z,0.60
2023-05-10T15:54:46.168Z,0.47
2023-05-10T15:57:18.822Z,0.70
2023-05-10T15:59:53.412Z,0.90
2023-05-10T16:02:28.721Z,0.50
2023-05-10T16:05:01.768Z,0.45
2023-05-10T16:07:35.313Z,1.23
2023-05-10T16:10:10.674Z,0.52
2023-05-10T16:12:44.066Z,0.40
2023-05-10T16:15:19.058Z,0.40
2023-05-10T16:17:52.058Z,0.57
2023-05-10T16:20:25.008Z,0.40
2023-05-10T16:23:04.938Z,0.60
2023-05-10T16:25:37.882Z,0.40
2023-05-10T16:28:11.261Z,0.47
2023-05-10T16:30:45.425Z,0.50
2023-05-10T16:33:18.197Z,0.82
2023-05-10T16:35:51.341Z,0.70
2023-05-10T16:38:23.826Z,0.57
2023-05-10T16:41:04.566Z,1.00
2023-05-10T16:43:39.221Z,0.47
2023-05-10T16:46:15.400Z,0.80
2023-05-10T16:48:53.141Z,0.75
2023-05-10T16:51:26.040Z,1.58
2023-05-10T16:54:15.396Z,1.17
2023-05-10T17:07:37.407Z,1.83
2023-05-10T17:10:11.288Z,1.55
2023-05-10T17:12:44.032Z,1.30
2023-05-10T17:15:26.318Z,1.50
2023-05-10T17:18:00.022Z,1.95
2023-05-10T17:20:33.016Z,1.80
2023-05-10T17:23:08.157Z,2.67
2023-05-10T17:25:42.243Z,2.72
2023-05-10T17:28:17.911Z,5.10
2023-05-10T17:30:58.381Z,4.40
2023-05-10T17:33:39.084Z,2.07
2023-05-10T17:36:11.708Z,3.92
2023-05-10T17:38:45.770Z,6.72
2023-05-10T17:41:18.856Z,5.93
2023-05-10T17:43:54.621Z,8.27
2023-05-10T17:46:27.143Z,7.00
2023-05-10T17:49:00.092Z,5.07
2023-05-10T17:51:33.719Z,3.85
2023-05-10T17:54:07.761Z,2.67
2023-05-10T17:56:45.694Z,3.92
2023-05-10T17:59:18.633Z,3.80
2023-05-10T18:01:51.922Z,3.30
2023-05-10T18:04:26.206Z,3.45
2023-05-10T18:07:02.621Z,3.00
2023-05-10T18:09:36.502Z,2.28
2023-05-10T18:12:09.659Z,3.77
2023-05-10T18:14:44.610Z,2.60
2023-05-10T18:17:17.611Z,3.45
2023-05-10T18:19:50.447Z,3.63
2023-05-10T18:22:23.629Z,4.05
2023-05-10T18:24:58.240Z,4.47
2023-05-10T18:27:32.180Z,4.68
2023-05-10T18:30:10.258Z,4.60
2023-05-10T18:32:43.156Z,3.38
2023-05-10T18:35:15.967Z,2.78
2023-05-10T18:37:48.959Z,3.20
2023-05-10T18:40:23.547Z,4.00
2023-05-10T18:42:56.213Z,5.10
2023-05-10T18:45:29.462Z,3.05
2023-05-10T18:48:03.217Z,3.22
2023-05-10T18:50:41.334Z,4.10
2023-05-10T18:53:14.176Z,2.92
2023-05-10T18:55:58.899Z,2.85
2023-05-10T18:58:31.904Z,1.30
2023-05-10T19:01:05.160Z,2.53
2023-05-10T19:03:37.734Z,2.40
2023-05-10T19:06:11.457Z,2.75
2023-05-10T19:08:44.239Z,2.63
2023-05-10T19:11:19.596Z,1.67
2023-05-10T19:13:52.228Z,2.83
2023-05-10T19:16:26.062Z,2.63
2023-05-10T19:19:00.416Z,2.97
2023-05-10T19:21:34.458Z,3.53
2023-05-10T19:24:07.526Z,2.75
2023-05-10T19:26:42.178Z,2.97
2023-05-10T19:29:16.202Z,1.50
2023-05-10T19:31:49.980Z,0.98
2023-05-10T19:34:22.723Z,1.80
2023-05-10T19:36:55.635Z,5.07
2023-05-10T19:39:28.504Z,2.55
2023-05-10T19:42:03.130Z,2.37
2023-05-10T19:44:35.910Z,2.20
2023-05-10T19:47:09.660Z,2.08
2023-05-10T19:49:42.252Z,3.97
2023-05-10T19:52:18.166Z,3.78
2023-05-10T19:54:50.617Z,3.57
2023-05-10T19:57:25.020Z,3.17
2023-05-10T19:59:57.885Z,3.75
2023-05-10T20:02:32.268Z,3.13
2023-05-10T20:05:06.029Z,2.63
2023-05-10T20:07:38.912Z,1.63
2023-05-10T20:10:12.197Z,3.15
2023-05-10T20:12:52.912Z,3.03
2023-05-10T20:15:26.458Z,2.00
2023-05-10T20:17:59.195Z,1.77
2023-05-10T20:20:33.207Z,1.87
2023-05-10T20:23:06.287Z,1.58
2023-05-10T20:25:39.178Z,2.10
2023-05-10T20:28:13.555Z,1.55
2023-05-10T20:30:46.349Z,1.50
2023-05-10T20:33:21.702Z,1.60
2023-05-10T20:35:57.812Z,1.70
2023-05-10T20:38:30.309Z,2.33
2023-05-10T20:41:03.540Z,1.75
2023-05-10T20:43:37.880Z,1.50
2023-05-10T20:46:10.913Z,2.93
2023-05-10T20:48:43.538Z,2.47
2023-05-10T20:51:16.507Z,2.90
2023-05-10T20:53:49.767Z,2.05
2023-05-10T20:56:22.643Z,2.80
2023-05-10T20:58:56.846Z,3.10
2023-05-10T21:01:29.555Z,3.67
2023-05-10T21:04:02.458Z,3.00
2023-05-10T21:06:35.150Z,3.33
2023-05-10T21:09:08.302Z,3.28
2023-05-10T21:11:40.741Z,2.10
2023-05-10T21:14:15.223Z,3.10
2023-05-10T21:16:48.104Z,2.38
2023-05-10T21:19:21.186Z,2.38
2023-05-10T21:21:56.182Z,2.05
2023-05-10T21:24:29.598Z,3.53
2023-05-10T21:27:02.953Z,2.47
2023-05-10T21:29:37.657Z,2.58
2023-05-10T21:32:10.153Z,3.20
2023-05-10T21:34:43.223Z,2.90
2023-05-10T21:37:17.403Z,1.93
2023-05-10T21:39:50.500Z,2.63
2023-05-10T21:42:23.178Z,2.22
2023-05-10T21:44:57.877Z,1.88
2023-05-10T21:47:30.851Z,2.78
2023-05-10T21:50:04.182Z,3.03
2023-05-10T21:52:38.322Z,3.40
2023-05-10T21:55:10.994Z,2.65
2023-05-10T21:57:45.276Z,2.35
2023-05-10T22:00:19.854Z,2.90
2023-05-10T22:02:53.352Z,2.93
2023-05-10T22:05:26.380Z,2.72
2023-05-10T22:07:59.411Z,2.67
2023-05-10T22:10:32.950Z,3.30
2023-05-10T22:13:06.089Z,4.05
2023-05-10T22:15:39.967Z,4.23
2023-05-10T22:18:12.906Z,4.55
2023-05-10T22:20:45.837Z,4.38
2023-05-10T22:23:19.093Z,2.42
2023-05-10T22:25:51.951Z,3.47
2023-05-10T22:28:24.872Z,3.47
2023-05-10T22:30:59.270Z,2.28
2023-05-10T22:33:32.413Z,2.28
2023-05-10T22:36:06.198Z,2.40
2023-05-10T22:38:39.578Z,1.88
2023-05-10T22:41:11.974Z,1.40
2023-05-10T22:43:46.094Z,1.73
2023-05-10T22:46:20.001Z,1.15
2023-05-10T22:48:56.165Z,1.42
2023-05-10T22:51:29.039Z,1.17
2023-05-10T22:54:01.621Z,1.50
2023-05-10T22:56:34.831Z,1.83
2023-05-10T22:59:07.426Z,1.98
2023-05-10T23:01:42.046Z,1.60
2023-05-10T23:04:15.227Z,1.80
2023-05-10T23:06:48.183Z,1.27
2023-05-10T23:09:21.367Z,2.25
2023-05-10T23:11:54.403Z,1.52
2023-05-10T23:14:27.261Z,2.33
2023-05-10T23:17:01.248Z,1.30
2023-05-10T23:19:34.611Z,1.90
2023-05-10T23:22:07.109Z,1.70
2023-05-10T23:24:40.289Z,2.88
2023-05-10T23:27:13.072Z,2.88
2023-05-10T23:29:46.219Z,1.55
2023-05-10T23:32:20.572Z,2.90
2023-05-10T23:34:53.707Z,1.90
2023-05-10T23:37:26.295Z,1.88
2023-05-10T23:39:59.795Z,2.25
2023-05-10T23:42:32.945Z,1.83
2023-05-10T23:45:06.830Z,2.63
2023-05-10T23:47:40.829Z,2.20
2023-05-10T23:50:13.927Z,2.05
2023-05-10T23:52:46.420Z,1.30
2023-05-10T23:55:19.495Z,3.88
2023-05-10T23:57:54.199Z,1.97
